Map

Track Data

SID SEASON NUMBER BASIN SUBBASIN NAME ISO_TIME NATURE LAT LON WMO_WIND WMO_PRES WMO_AGENCY TRACK_TYPE DIST2LAND LANDFALL IFLAG USA_AGENCY USA_ATCF_ID USA_LAT USA_LON USA_RECORD USA_STATUS USA_WIND USA_PRES USA_SSHS USA_R34_NE USA_R34_SE USA_R34_SW USA_R34_NW USA_R50_NE USA_R50_SE USA_R50_SW USA_R50_NW USA_R64_NE USA_R64_SE USA_R64_SW USA_R64_NW USA_POCI USA_ROCI USA_RMW USA_EYE TOKYO_LAT TOKYO_LON TOKYO_GRADE TOKYO_WIND TOKYO_PRES TOKYO_R50_DIR TOKYO_R50_LONG TOKYO_R50_SHORT TOKYO_R30_DIR TOKYO_R30_LONG TOKYO_R30_SHORT TOKYO_LAND CMA_LAT CMA_LON CMA_CAT CMA_WIND CMA_PRES HKO_LAT HKO_LON HKO_CAT HKO_WIND HKO_PRES NEWDELHI_LAT NEWDELHI_LON NEWDELHI_GRADE NEWDELHI_WIND NEWDELHI_PRES NEWDELHI_CI NEWDELHI_DP NEWDELHI_POCI REUNION_LAT REUNION_LON REUNION_TYPE REUNION_WIND REUNION_PRES REUNION_TNUM REUNION_CI REUNION_RMW REUNION_R34_NE REUNION_R34_SE REUNION_R34_SW REUNION_R34_NW REUNION_R50_NE REUNION_R50_SE REUNION_R50_SW REUNION_R50_NW REUNION_R64_NE REUNION_R64_SE REUNION_R64_SW REUNION_R64_NW BOM_LAT BOM_LON BOM_TYPE BOM_WIND BOM_PRES BOM_TNUM BOM_CI BOM_RMW BOM_R34_NE BOM_R34_SE BOM_R34_SW BOM_R34_NW BOM_R50_NE BOM_R50_SE BOM_R50_SW BOM_R50_NW BOM_R64_NE BOM_R64_SE BOM_R64_SW BOM_R64_NW BOM_ROCI BOM_POCI BOM_EYE BOM_POS_METHOD BOM_PRES_METHOD NADI_LAT NADI_LON NADI_CAT NADI_WIND NADI_PRES WELLINGTON_LAT WELLINGTON_LON WELLINGTON_WIND WELLINGTON_PRES DS824_LAT DS824_LON DS824_STAGE DS824_WIND DS824_PRES TD9636_LAT TD9636_LON TD9636_STAGE TD9636_WIND TD9636_PRES TD9635_LAT TD9635_LON TD9635_WIND TD9635_PRES TD9635_ROCI NEUMANN_LAT NEUMANN_LON NEUMANN_CLASS NEUMANN_WIND NEUMANN_PRES MLC_LAT MLC_LON MLC_CLASS MLC_WIND MLC_PRES USA_GUST BOM_GUST BOM_GUST_PER REUNION_GUST REUNION_GUST_PER USA_SEAHGT USA_SEARAD_NE USA_SEARAD_SE USA_SEARAD_SW USA_SEARAD_NW STORM_SPEED STORM_DIR
1893176N23091 1893 19 NI BB NOT_NAMED 1893-06-25 00:00:00 TS 23.3000 90.6000 main 0 0 _________O____ -1 23.3000 90.6000 TC 30 0 0
1893176N23091 1893 19 NI BB NOT_NAMED 1893-06-25 03:00:00 TS 23.3000 90.6000 main 0 0 _________PO___ -1 23.3000 90.6000 TC 30 23.3000 90.6000 1 0 0
1893176N23091 1893 19 NI BB NOT_NAMED 1893-06-25 06:00:00 TS 23.3007 90.5869 main 0 0 _________OP___ -1 23.3000 90.6000 TC 30 23.3018 90.5672 1 0 0
1893176N23091 1893 19 NI BB NOT_NAMED 1893-06-25 09:00:00 TS 23.3012 90.5775 main 0 0 _________PP___ -1 23.3000 90.6000 TC 30 23.3028 90.5476 1 0 0
1893176N23091 1893 19 NI BB NOT_NAMED 1893-06-25 12:00:00 TS 23.3012 90.5771 main 0 0 _________OP___ -1 23.3000 90.6000 TC 30 23.3025 90.5541 1 0 0
1893176N23091 1893 19 NI BB NOT_NAMED 1893-06-25 15:00:00 TS 23.3000 90.6000 main 0 0 _________PO___ -1 23.3000 90.6000 TC 30 23.3000 90.6000 1 1 94
1893176N23091 1893 19 NI BB NOT_NAMED 1893-06-25 18:00:00 TS 23.2977 90.6426 main 0 0 _________OP___ -1 23.3000 90.6000 TC 30 23.2953 90.6852 1 1 93
1893176N23091 1893 19 NI BB NOT_NAMED 1893-06-25 21:00:00 TS 23.2956 90.7087 main 0 0 _________PP___ -1 23.2998 90.6600 TC 30 23.2914 90.7573 1 0 93
1893176N23091 1893 19 NI BB NOT_NAMED 1893-06-26 00:00:00 TS 23.2959 90.6754 main 0 0 _________OP___ -1 23.3000 90.6000 TC 30 23.2917 90.7508 1 2 270
1893176N23091 1893 19 NI BB NOT_NAMED 1893-06-26 03:00:00 TS 23.2962 90.4487 main 0 0 _________PO___ -1 23.2923 90.2974 TC 30 23.3000 90.6000 1 6 271
1893176N23091 1893 19 NI BB NOT_NAMED 1893-06-26 06:00:00 TS 23.3028 90.0290 main 0 0 _________OP___ -1 23.3000 89.8000 TC 30 23.3057 90.2579 1 9 272
1893176N23091 1893 19 NI BB NOT_NAMED 1893-06-26 09:00:00 TS 23.3274 89.4845 main 0 0 _________PP___ -1 23.3349 89.2024 TC 30 23.3199 89.7666 1 11 274
1893176N23091 1893 19 NI BB NOT_NAMED 1893-06-26 12:00:00 TS 23.3746 88.8335 main 0 0 _________OP___ -1 23.4000 88.5000 TC 30 23.3491 89.1671 1 13 275
1893176N23091 1893 19 NI BB NOT_NAMED 1893-06-26 15:00:00 TS 23.4462 88.1288 main 0 0 _________PO___ -1 23.4925 87.7575 TC 30 23.4000 88.5000 1 13 277
1893176N23091 1893 19 NI BB NOT_NAMED 1893-06-26 18:00:00 TS 23.5395 87.4103 main 0 0 _________OP___ -1 23.6000 87.0000 TC 30 23.4790 87.8207 1 13 278
1893176N23091 1893 19 NI BB NOT_NAMED 1893-06-26 21:00:00 TS 23.6390 86.6864 main 0 0 _________PP___ -1 23.6997 86.2849 TC 30 23.5783 87.0879 1 13 279
1893176N23091 1893 19 NI BB NOT_NAMED 1893-06-27 00:00:00 TS 23.7441 85.9681 main 0 0 _________OP___ -1 23.8000 85.6000 TC 30 23.6883 86.3362 1 13 279
1893176N23091 1893 19 NI BB NOT_NAMED 1893-06-27 03:00:00 TS 23.8498 85.2712 main 0 0 _________PO___ -1 23.8996 84.9424 TC 30 23.8000 85.6000 1 13 279
1893176N23091 1893 19 NI BB NOT_NAMED 1893-06-27 06:00:00 TS 23.9473 84.6160 main 0 0 _________OP___ -1 24.0000 84.3000 TC 30 23.8945 84.9320 1 12 279
1893176N23091 1893 19 NI BB NOT_NAMED 1893-06-27 09:00:00 TS 24.0451 83.9708 main 0 0 _________PP___ -1 24.0996 83.6574 TC 30 23.9906 84.2843 1 12 280
1893176N23091 1893 19 NI BB NOT_NAMED 1893-06-27 12:00:00 TS 24.1457 83.3222 main 0 0 _________OP___ -1 24.2000 83.0000 TC 30 24.0915 83.6444 1 12 279
1893176N23091 1893 19 NI BB NOT_NAMED 1893-06-27 15:00:00 TS 24.2462 82.6499 main 0 0 _________PO___ -1 24.2924 82.2998 TC 30 24.2000 83.0000 1 13 280
1893176N23091 1893 19 NI BB NOT_NAMED 1893-06-27 18:00:00 TS 24.3524 81.9678 main 0 0 _________OP___ -1 24.4000 81.6000 TC 30 24.3048 82.3356 1 12 281
1893176N23091 1893 19 NI BB NOT_NAMED 1893-06-27 21:00:00 TS 24.4804 81.3069 main 0 0 _________PP___ -1 24.5420 80.9499 TC 30 24.4188 81.6639 1 12 283
1893176N23091 1893 19 NI BB NOT_NAMED 1893-06-28 00:00:00 TS 24.6242 80.6427 main 0 0 _________OP___ -1 24.7000 80.3000 TC 30 24.5485 80.9853 1 13 283
1893176N23091 1893 19 NI BB NOT_NAMED 1893-06-28 03:00:00 TS 24.7674 79.9536 main 0 0 _________PO___ -1 24.8348 79.6071 TC 30 24.7000 80.3000 1 13 284
1893176N23091 1893 19 NI BB NOT_NAMED 1893-06-28 06:00:00 TS 24.9373 79.2375 main 0 0 _________OP___ -1 25.0000 78.9000 TC 30 24.8745 79.5750 1 14 287
1893176N23091 1893 19 NI BB NOT_NAMED 1893-06-28 09:00:00 TS 25.1565 78.5091 main 0 0 _________PP___ -1 25.2426 78.1703 TC 30 25.0704 78.8479 1 14 289
1893176N23091 1893 19 NI AS NOT_NAMED 1893-06-28 12:00:00 TS 25.3905 77.8234 main 0 0 _________OP___ -1 25.5000 77.5000 TC 30 25.2810 78.1467 1 12 291
1893176N23091 1893 19 NI AS NOT_NAMED 1893-06-28 15:00:00 TS 25.5997 77.2347 main 0 0 _________PO___ -1 25.6995 76.9695 TC 30 25.5000 77.5000 1 11 293
1893176N23091 1893 19 NI AS NOT_NAMED 1893-06-28 18:00:00 TS 25.8145 76.7030 main 0 0 _________OP___ -1 25.9000 76.5000 TC 30 25.7291 76.9059 1 11 296
1893176N23091 1893 19 NI AS NOT_NAMED 1893-06-28 21:00:00 TS 26.0608 76.1714 main 0 0 _________PP___ -1 26.1576 75.9702 TC 30 25.9640 76.3727 1 10 298
1893176N23091 1893 19 NI AS NOT_NAMED 1893-06-29 00:00:00 TS 26.2960 75.7015 main 0 0 _________OP___ -1 26.4000 75.5000 TC 30 26.1920 75.9030 1 9 299
1893176N23091 1893 19 NI AS NOT_NAMED 1893-06-29 03:00:00 TS 26.4824 75.3311 main 0 0 _________PO___ -1 26.5647 75.1622 TC 30 26.4000 75.5000 1 7 299
1893176N23091 1893 19 NI AS NOT_NAMED 1893-06-29 06:00:00 TS 26.6312 75.0276 main 0 0 _________OP___ -1 26.7000 74.9000 TC 30 26.5625 75.1551 1 6 300
1893176N23091 1893 19 NI AS NOT_NAMED 1893-06-29 09:00:00 TS 26.7744 74.7580 main 0 0 _________PP___ -1 26.8424 74.6424 TC 30 26.7063 74.8736 1 5 303
1893176N23091 1893 19 NI AS NOT_NAMED 1893-06-29 12:00:00 TS 26.9235 74.5152 main 0 0 _________OP___ -1 27.0000 74.4000 TC 30 26.8471 74.6303 1 5 307
1893176N23091 1893 19 NI AS NOT_NAMED 1893-06-29 15:00:00 TS 27.0962 74.2750 main 0 0 _________PO___ -1 27.1925 74.1500 TC 30 27.0000 74.4000 1 5 310
1893176N23091 1893 19 NI AS NOT_NAMED 1893-06-29 18:00:00 TS 27.2723 74.0496 main 0 0 _________OP___ -1 27.4000 73.9000 TC 30 27.1765 74.1618 1 6 312
1893176N23091 1893 19 NI AS NOT_NAMED 1893-06-29 21:00:00 TS 27.4650 73.8084 main 0 0 _________PP___ -1 27.6026 73.6502 TC 30 27.3733 73.9139 1 6 312
1893176N23091 1893 19 NI AS NOT_NAMED 1893-06-30 00:00:00 TS 27.6556 73.5726 main 0 0 _________OP___ -1 27.8000 73.4000 TC 30 27.5834 73.6589 1 5 313
1893176N23091 1893 19 NI AS NOT_NAMED 1893-06-30 03:00:00 NR 27.8000 73.4000 main 0 __________O___ -1 TC 27.8000 73.4000 1 4 314

About IBTrACS Database

This database is a web-friendly format of International Best Track Archive for Climate Stewardship (IBTrACS), a global best track data archive curated by NOAA dating back to 1842.

Updated: 2021-10-08